Bowman, Indiana
Current Conditions -  °F | °C
As of 3:55 AM on Saturday 20 Dec 2014 (Local Time) from KDCY Reporting Station
Light Snow Light Snow  
Wind Chill: 29°   Ceiling: 5500
Heat Index: 29°   Visibility: 7mi
Dew Point: 26°   Wind: 0mph
Humidity: 88%   Direction: NA
Pressure: 30.28"   Gusts: NA
Location:  38.4723°N, 87.3105°W
Report Text: KDCY 200955Z AUTO 00000KT 7SM -SN SCT025 SCT047 OVC055 M01/M03 A3028 RMK AO2 T10141031
Loading
Personal Weather Stations






























Interactive Weather Map New forecast layout! Learn more

10-Day Weather Forecast

Advertisements
Track Severe Weather on mobile